sensor_id;sensor_type;location;lat;lon;timestamp;P1;durP1;ratioP1;P2;durP2;ratioP2
34657;SDS011;20865;43.312;27.152;2024-01-15T00:01:42;41.15;;;14.90;;
34657;SDS011;20865;43.312;27.152;2024-01-15T00:04:10;27.07;;;10.60;;
34657;SDS011;20865;43.312;27.152;2024-01-15T00:06:38;32.60;;;12.05;;
34657;SDS011;20865;43.312;27.152;2024-01-15T00:09:05;31.20;;;12.13;;
34657;SDS011;20865;43.312;27.152;2024-01-15T00:11:33;29.35;;;10.60;;
34657;SDS011;20865;43.312;27.152;2024-01-15T00:14:01;21.77;;;9.20;;
34657;SDS011;20865;43.312;27.152;2024-01-15T00:16:29;24.37;;;10.25;;
34657;SDS011;20865;43.312;27.152;2024-01-15T00:18:57;25.23;;;10.53;;
34657;SDS011;20865;43.312;27.152;2024-01-15T00:21:25;30.27;;;10.75;;
34657;SDS011;20865;43.312;27.152;2024-01-15T00:23:53;33.02;;;12.70;;
34657;SDS011;20865;43.312;27.152;2024-01-15T00:26:21;34.05;;;12.53;;
34657;SDS011;20865;43.312;27.152;2024-01-15T00:28:48;35.40;;;12.50;;
34657;SDS011;20865;43.312;27.152;2024-01-15T00:31:16;28.27;;;12.78;;
34657;SDS011;20865;43.312;27.152;2024-01-15T00:33:44;28.15;;;11.73;;
34657;SDS011;20865;43.312;27.152;2024-01-15T00:36:12;44.27;;;13.15;;
34657;SDS011;20865;43.312;27.152;2024-01-15T00:38:42;67.53;;;18.20;;
34657;SDS011;20865;43.312;27.152;2024-01-15T00:41:13;36.38;;;12.23;;
34657;SDS011;20865;43.312;27.152;2024-01-15T00:43:40;62.60;;;16.75;;
34657;SDS011;20865;43.312;27.152;2024-01-15T00:46:09;75.52;;;16.48;;
34657;SDS011;20865;43.312;27.152;2024-01-15T00:48:37;50.03;;;14.55;;
34657;SDS011;20865;43.312;27.152;2024-01-15T00:51:04;55.73;;;13.75;;
34657;SDS011;20865;43.312;27.152;2024-01-15T00:53:32;60.40;;;15.90;;
34657;SDS011;20865;43.312;27.152;2024-01-15T00:56:00;44.30;;;15.30;;
34657;SDS011;20865;43.312;27.152;2024-01-15T00:58:28;28.83;;;11.12;;
34657;SDS011;20865;43.312;27.152;2024-01-15T01:00:56;19.82;;;7.17;;
34657;SDS011;20865;43.312;27.152;2024-01-15T01:03:23;17.75;;;5.00;;
34657;SDS011;20865;43.312;27.152;2024-01-15T01:05:51;12.10;;;4.53;;
34657;SDS011;20865;43.312;27.152;2024-01-15T01:08:18;10.15;;;4.03;;
34657;SDS011;20865;43.312;27.152;2024-01-15T01:10:46;55.50;;;13.90;;
34657;SDS011;20865;43.312;27.152;2024-01-15T01:13:13;97.97;;;21.90;;
34657;SDS011;20865;43.312;27.152;2024-01-15T01:15:41;60.30;;;15.40;;
34657;SDS011;20865;43.312;27.152;2024-01-15T01:18:09;91.95;;;24.57;;
34657;SDS011;20865;43.312;27.152;2024-01-15T01:20:36;69.20;;;18.73;;
34657;SDS011;20865;43.312;27.152;2024-01-15T01:23:04;37.55;;;12.00;;
34657;SDS011;20865;43.312;27.152;2024-01-15T01:25:31;39.18;;;10.03;;
34657;SDS011;20865;43.312;27.152;2024-01-15T01:27:59;68.00;;;16.97;;
34657;SDS011;20865;43.312;27.152;2024-01-15T01:30:26;43.65;;;12.63;;
34657;SDS011;20865;43.312;27.152;2024-01-15T01:32:54;32.50;;;10.60;;
34657;SDS011;20865;43.312;27.152;2024-01-15T01:35:22;33.58;;;10.25;;
34657;SDS011;20865;43.312;27.152;2024-01-15T01:37:50;27.75;;;8.35;;
34657;SDS011;20865;43.312;27.152;2024-01-15T01:40:18;19.02;;;7.03;;
34657;SDS011;20865;43.312;27.152;2024-01-15T01:42:45;24.05;;;7.05;;
34657;SDS011;20865;43.312;27.152;2024-01-15T01:45:14;16.93;;;6.22;;
34657;SDS011;20865;43.312;27.152;2024-01-15T01:47:41;19.85;;;5.92;;
34657;SDS011;20865;43.312;27.152;2024-01-15T01:50:09;19.23;;;7.47;;
34657;SDS011;20865;43.312;27.152;2024-01-15T01:52:38;26.02;;;8.60;;
34657;SDS011;20865;43.312;27.152;2024-01-15T01:55:07;31.12;;;9.03;;
34657;SDS011;20865;43.312;27.152;2024-01-15T01:57:37;20.05;;;8.03;;
34657;SDS011;20865;43.312;27.152;2024-01-15T02:00:05;16.37;;;4.53;;
34657;SDS011;20865;43.312;27.152;2024-01-15T02:02:34;9.38;;;4.25;;
34657;SDS011;20865;43.312;27.152;2024-01-15T02:05:03;11.12;;;4.92;;
34657;SDS011;20865;43.312;27.152;2024-01-15T02:07:31;13.18;;;4.65;;
34657;SDS011;20865;43.312;27.152;2024-01-15T02:10:01;15.18;;;5.05;;
34657;SDS011;20865;43.312;27.152;2024-01-15T02:12:29;12.13;;;5.40;;
34657;SDS011;20865;43.312;27.152;2024-01-15T02:14:57;15.90;;;4.92;;
34657;SDS011;20865;43.312;27.152;2024-01-15T02:17:25;18.70;;;6.22;;
34657;SDS011;20865;43.312;27.152;2024-01-15T02:19:53;14.90;;;5.95;;
34657;SDS011;20865;43.312;27.152;2024-01-15T02:22:22;13.65;;;5.75;;
34657;SDS011;20865;43.312;27.152;2024-01-15T02:24:50;14.23;;;5.40;;
34657;SDS011;20865;43.312;27.152;2024-01-15T02:27:17;10.85;;;4.47;;
34657;SDS011;20865;43.312;27.152;2024-01-15T02:29:45;13.40;;;4.97;;
34657;SDS011;20865;43.312;27.152;2024-01-15T02:32:14;19.70;;;5.85;;
34657;SDS011;20865;43.312;27.152;2024-01-15T02:34:42;17.87;;;7.20;;
34657;SDS011;20865;43.312;27.152;2024-01-15T02:37:09;16.93;;;6.58;;
34657;SDS011;20865;43.312;27.152;2024-01-15T02:39:37;10.53;;;4.97;;
34657;SDS011;20865;43.312;27.152;2024-01-15T02:42:05;16.12;;;5.50;;
34657;SDS011;20865;43.312;27.152;2024-01-15T02:44:32;11.25;;;4.65;;
34657;SDS011;20865;43.312;27.152;2024-01-15T02:47:00;12.65;;;4.53;;
34657;SDS011;20865;43.312;27.152;2024-01-15T02:49:28;11.00;;;4.30;;
34657;SDS011;20865;43.312;27.152;2024-01-15T02:51:55;11.33;;;4.15;;
34657;SDS011;20865;43.312;27.152;2024-01-15T02:54:23;16.65;;;4.83;;
34657;SDS011;20865;43.312;27.152;2024-01-15T02:56:50;11.20;;;4.50;;
34657;SDS011;20865;43.312;27.152;2024-01-15T02:59:18;11.50;;;4.00;;
34657;SDS011;20865;43.312;27.152;2024-01-15T03:01:45;10.70;;;4.85;;
34657;SDS011;20865;43.312;27.152;2024-01-15T03:04:13;11.33;;;4.90;;
34657;SDS011;20865;43.312;27.152;2024-01-15T03:06:40;11.20;;;4.33;;
34657;SDS011;20865;43.312;27.152;2024-01-15T03:09:08;15.30;;;5.83;;
34657;SDS011;20865;43.312;27.152;2024-01-15T03:11:38;11.95;;;5.22;;
34657;SDS011;20865;43.312;27.152;2024-01-15T03:14:06;19.65;;;4.92;;
34657;SDS011;20865;43.312;27.152;2024-01-15T03:16:34;10.48;;;5.15;;
34657;SDS011;20865;43.312;27.152;2024-01-15T03:19:01;16.70;;;5.28;;
34657;SDS011;20865;43.312;27.152;2024-01-15T03:21:29;12.63;;;5.25;;
34657;SDS011;20865;43.312;27.152;2024-01-15T03:23:56;14.75;;;5.67;;
34657;SDS011;20865;43.312;27.152;2024-01-15T03:26:24;10.20;;;4.60;;
34657;SDS011;20865;43.312;27.152;2024-01-15T03:28:51;10.23;;;4.58;;
34657;SDS011;20865;43.312;27.152;2024-01-15T03:31:19;10.88;;;4.37;;
34657;SDS011;20865;43.312;27.152;2024-01-15T03:33:46;12.88;;;4.87;;
34657;SDS011;20865;43.312;27.152;2024-01-15T03:36:14;10.48;;;4.42;;
34657;SDS011;20865;43.312;27.152;2024-01-15T03:38:42;12.15;;;4.87;;
34657;SDS011;20865;43.312;27.152;2024-01-15T03:41:09;13.72;;;4.50;;
34657;SDS011;20865;43.312;27.152;2024-01-15T03:43:37;14.38;;;5.33;;
34657;SDS011;20865;43.312;27.152;2024-01-15T03:46:05;16.42;;;6.62;;
34657;SDS011;20865;43.312;27.152;2024-01-15T03:48:33;11.55;;;4.55;;
34657;SDS011;20865;43.312;27.152;2024-01-15T03:51:01;20.05;;;4.72;;
34657;SDS011;20865;43.312;27.152;2024-01-15T03:53:29;11.03;;;4.72;;
34657;SDS011;20865;43.312;27.152;2024-01-15T03:55:56;15.18;;;5.10;;
34657;SDS011;20865;43.312;27.152;2024-01-15T03:58:24;13.70;;;6.37;;
34657;SDS011;20865;43.312;27.152;2024-01-15T04:00:51;25.05;;;9.13;;
34657;SDS011;20865;43.312;27.152;2024-01-15T04:03:19;17.77;;;7.10;;
34657;SDS011;20865;43.312;27.152;2024-01-15T04:05:46;12.68;;;5.78;;
34657;SDS011;20865;43.312;27.152;2024-01-15T04:08:14;12.15;;;5.37;;
34657;SDS011;20865;43.312;27.152;2024-01-15T04:10:41;14.63;;;6.67;;
34657;SDS011;20865;43.312;27.152;2024-01-15T04:13:09;14.75;;;6.85;;
34657;SDS011;20865;43.312;27.152;2024-01-15T04:15:37;14.15;;;5.97;;
34657;SDS011;20865;43.312;27.152;2024-01-15T04:18:04;14.75;;;6.70;;
34657;SDS011;20865;43.312;27.152;2024-01-15T04:20:32;14.50;;;7.15;;
34657;SDS011;20865;43.312;27.152;2024-01-15T04:22:59;12.85;;;4.72;;
34657;SDS011;20865;43.312;27.152;2024-01-15T04:25:27;10.35;;;4.30;;
34657;SDS011;20865;43.312;27.152;2024-01-15T04:27:54;15.13;;;4.60;;
34657;SDS011;20865;43.312;27.152;2024-01-15T04:30:22;10.53;;;4.22;;
34657;SDS011;20865;43.312;27.152;2024-01-15T04:32:49;8.40;;;3.80;;
34657;SDS011;20865;43.312;27.152;2024-01-15T04:35:17;9.28;;;3.90;;
34657;SDS011;20865;43.312;27.152;2024-01-15T04:37:45;13.53;;;5.65;;
34657;SDS011;20865;43.312;27.152;2024-01-15T04:40:13;11.00;;;4.33;;
34657;SDS011;20865;43.312;27.152;2024-01-15T04:42:41;11.03;;;4.00;;
34657;SDS011;20865;43.312;27.152;2024-01-15T04:45:10;11.15;;;4.17;;
34657;SDS011;20865;43.312;27.152;2024-01-15T04:47:38;9.33;;;4.50;;
34657;SDS011;20865;43.312;27.152;2024-01-15T04:50:06;10.45;;;4.92;;
34657;SDS011;20865;43.312;27.152;2024-01-15T04:52:34;13.45;;;4.45;;
34657;SDS011;20865;43.312;27.152;2024-01-15T04:55:01;16.10;;;5.35;;
34657;SDS011;20865;43.312;27.152;2024-01-15T04:57:29;13.00;;;4.58;;
34657;SDS011;20865;43.312;27.152;2024-01-15T04:59:58;12.80;;;4.85;;
34657;SDS011;20865;43.312;27.152;2024-01-15T05:02:25;10.32;;;4.67;;
34657;SDS011;20865;43.312;27.152;2024-01-15T05:04:53;11.15;;;4.42;;
34657;SDS011;20865;43.312;27.152;2024-01-15T05:07:20;12.07;;;4.33;;
34657;SDS011;20865;43.312;27.152;2024-01-15T05:09:48;13.00;;;4.53;;
34657;SDS011;20865;43.312;27.152;2024-01-15T05:12:15;10.28;;;4.53;;
34657;SDS011;20865;43.312;27.152;2024-01-15T05:14:43;12.25;;;4.17;;
34657;SDS011;20865;43.312;27.152;2024-01-15T05:17:11;8.93;;;4.47;;
34657;SDS011;20865;43.312;27.152;2024-01-15T05:19:38;12.18;;;4.83;;
34657;SDS011;20865;43.312;27.152;2024-01-15T05:22:06;18.77;;;5.95;;
34657;SDS011;20865;43.312;27.152;2024-01-15T05:24:33;29.20;;;13.68;;
34657;SDS011;20865;43.312;27.152;2024-01-15T05:27:01;18.40;;;6.70;;
34657;SDS011;20865;43.312;27.152;2024-01-15T05:29:28;46.83;;;24.45;;
34657;SDS011;20865;43.312;27.152;2024-01-15T05:31:56;78.07;;;36.30;;
34657;SDS011;20865;43.312;27.152;2024-01-15T05:34:23;16.27;;;6.92;;
34657;SDS011;20865;43.312;27.152;2024-01-15T05:36:51;22.35;;;6.08;;
34657;SDS011;20865;43.312;27.152;2024-01-15T05:39:19;24.67;;;5.58;;
34657;SDS011;20865;43.312;27.152;2024-01-15T05:41:46;17.35;;;4.92;;
34657;SDS011;20865;43.312;27.152;2024-01-15T05:44:14;18.98;;;6.33;;
34657;SDS011;20865;43.312;27.152;2024-01-15T05:46:41;21.80;;;6.58;;
34657;SDS011;20865;43.312;27.152;2024-01-15T05:49:09;12.50;;;5.75;;
34657;SDS011;20865;43.312;27.152;2024-01-15T05:51:36;16.30;;;5.35;;
34657;SDS011;20865;43.312;27.152;2024-01-15T05:54:04;9.98;;;4.97;;
34657;SDS011;20865;43.312;27.152;2024-01-15T05:56:31;16.50;;;6.30;;
34657;SDS011;20865;43.312;27.152;2024-01-15T05:59:01;20.23;;;6.67;;
34657;SDS011;20865;43.312;27.152;2024-01-15T06:01:28;16.48;;;6.15;;
34657;SDS011;20865;43.312;27.152;2024-01-15T06:03:56;13.60;;;5.83;;
34657;SDS011;20865;43.312;27.152;2024-01-15T06:06:23;12.45;;;4.97;;
34657;SDS011;20865;43.312;27.152;2024-01-15T06:08:51;11.73;;;5.17;;
34657;SDS011;20865;43.312;27.152;2024-01-15T06:11:18;12.45;;;4.50;;
34657;SDS011;20865;43.312;27.152;2024-01-15T06:13:46;20.72;;;7.55;;
34657;SDS011;20865;43.312;27.152;2024-01-15T06:16:16;16.73;;;6.15;;
34657;SDS011;20865;43.312;27.152;2024-01-15T06:18:45;104.25;;;11.43;;
34657;SDS011;20865;43.312;27.152;2024-01-15T06:21:13;42.40;;;9.38;;
34657;SDS011;20865;43.312;27.152;2024-01-15T06:23:41;19.57;;;6.95;;
34657;SDS011;20865;43.312;27.152;2024-01-15T06:26:08;20.30;;;5.53;;
34657;SDS011;20865;43.312;27.152;2024-01-15T06:28:38;15.35;;;5.65;;
34657;SDS011;20865;43.312;27.152;2024-01-15T06:31:06;11.35;;;5.17;;
34657;SDS011;20865;43.312;27.152;2024-01-15T06:33:34;11.55;;;4.92;;
34657;SDS011;20865;43.312;27.152;2024-01-15T06:36:01;14.73;;;5.25;;
34657;SDS011;20865;43.312;27.152;2024-01-15T06:38:29;19.42;;;4.47;;
34657;SDS011;20865;43.312;27.152;2024-01-15T06:40:57;12.55;;;4.50;;
34657;SDS011;20865;43.312;27.152;2024-01-15T06:43:24;14.63;;;4.78;;
34657;SDS011;20865;43.312;27.152;2024-01-15T06:45:52;12.43;;;5.45;;
34657;SDS011;20865;43.312;27.152;2024-01-15T06:48:19;9.63;;;5.47;;
34657;SDS011;20865;43.312;27.152;2024-01-15T06:50:47;12.43;;;5.25;;
34657;SDS011;20865;43.312;27.152;2024-01-15T06:53:15;14.15;;;5.97;;
34657;SDS011;20865;43.312;27.152;2024-01-15T06:55:42;18.90;;;6.67;;
34657;SDS011;20865;43.312;27.152;2024-01-15T06:58:10;11.43;;;5.40;;
34657;SDS011;20865;43.312;27.152;2024-01-15T07:00:37;12.40;;;5.60;;
34657;SDS011;20865;43.312;27.152;2024-01-15T07:03:06;14.40;;;6.45;;
34657;SDS011;20865;43.312;27.152;2024-01-15T07:05:33;14.18;;;5.67;;
34657;SDS011;20865;43.312;27.152;2024-01-15T07:08:02;16.70;;;6.15;;
34657;SDS011;20865;43.312;27.152;2024-01-15T07:10:30;12.58;;;5.12;;
34657;SDS011;20865;43.312;27.152;2024-01-15T07:12:58;10.63;;;5.62;;
34657;SDS011;20865;43.312;27.152;2024-01-15T07:15:26;14.40;;;6.65;;
34657;SDS011;20865;43.312;27.152;2024-01-15T07:17:53;17.98;;;6.28;;
34657;SDS011;20865;43.312;27.152;2024-01-15T07:20:21;12.35;;;5.60;;
34657;SDS011;20865;43.312;27.152;2024-01-15T07:22:48;17.05;;;5.75;;
34657;SDS011;20865;43.312;27.152;2024-01-15T07:25:16;15.43;;;6.40;;
34657;SDS011;20865;43.312;27.152;2024-01-15T07:27:44;16.42;;;6.67;;
34657;SDS011;20865;43.312;27.152;2024-01-15T07:30:13;16.15;;;7.20;;
34657;SDS011;20865;43.312;27.152;2024-01-15T07:32:40;15.75;;;6.83;;
34657;SDS011;20865;43.312;27.152;2024-01-15T07:35:08;45.38;;;17.80;;
34657;SDS011;20865;43.312;27.152;2024-01-15T07:37:36;30.27;;;14.75;;
34657;SDS011;20865;43.312;27.152;2024-01-15T07:40:04;25.37;;;10.15;;
34657;SDS011;20865;43.312;27.152;2024-01-15T07:42:34;24.60;;;11.00;;
34657;SDS011;20865;43.312;27.152;2024-01-15T07:45:02;41.05;;;11.65;;
34657;SDS011;20865;43.312;27.152;2024-01-15T07:47:30;32.30;;;12.25;;
34657;SDS011;20865;43.312;27.152;2024-01-15T07:49:57;32.05;;;12.37;;
34657;SDS011;20865;43.312;27.152;2024-01-15T07:52:25;40.17;;;14.75;;
34657;SDS011;20865;43.312;27.152;2024-01-15T07:54:52;34.88;;;13.10;;
34657;SDS011;20865;43.312;27.152;2024-01-15T07:57:20;33.88;;;14.55;;
34657;SDS011;20865;43.312;27.152;2024-01-15T07:59:48;31.68;;;12.75;;
34657;SDS011;20865;43.312;27.152;2024-01-15T08:02:17;35.63;;;13.75;;
34657;SDS011;20865;43.312;27.152;2024-01-15T08:04:44;54.03;;;16.82;;
34657;SDS011;20865;43.312;27.152;2024-01-15T08:07:12;43.08;;;18.20;;
34657;SDS011;20865;43.312;27.152;2024-01-15T08:09:39;43.35;;;17.00;;
34657;SDS011;20865;43.312;27.152;2024-01-15T08:12:07;46.68;;;16.62;;
34657;SDS011;20865;43.312;27.152;2024-01-15T08:14:35;54.45;;;19.62;;
34657;SDS011;20865;43.312;27.152;2024-01-15T08:17:03;65.08;;;21.57;;
34657;SDS011;20865;43.312;27.152;2024-01-15T08:19:31;63.92;;;20.97;;
34657;SDS011;20865;43.312;27.152;2024-01-15T08:21:58;69.80;;;25.25;;
34657;SDS011;20865;43.312;27.152;2024-01-15T08:24:26;71.35;;;26.75;;
34657;SDS011;20865;43.312;27.152;2024-01-15T08:26:54;62.58;;;26.33;;
34657;SDS011;20865;43.312;27.152;2024-01-15T08:29:21;65.32;;;26.55;;
34657;SDS011;20865;43.312;27.152;2024-01-15T08:31:50;60.75;;;24.32;;
34657;SDS011;20865;43.312;27.152;2024-01-15T08:34:18;82.62;;;34.27;;
34657;SDS011;20865;43.312;27.152;2024-01-15T08:36:45;88.72;;;33.10;;
34657;SDS011;20865;43.312;27.152;2024-01-15T08:39:13;96.22;;;38.30;;
34657;SDS011;20865;43.312;27.152;2024-01-15T08:41:41;93.20;;;37.05;;
34657;SDS011;20865;43.312;27.152;2024-01-15T08:44:08;110.05;;;41.40;;
34657;SDS011;20865;43.312;27.152;2024-01-15T08:46:36;101.75;;;40.10;;
34657;SDS011;20865;43.312;27.152;2024-01-15T08:49:03;120.22;;;43.60;;
34657;SDS011;20865;43.312;27.152;2024-01-15T08:51:31;151.45;;;51.28;;
34657;SDS011;20865;43.312;27.152;2024-01-15T08:53:59;116.10;;;44.40;;
34657;SDS011;20865;43.312;27.152;2024-01-15T08:56:26;104.85;;;37.20;;
34657;SDS011;20865;43.312;27.152;2024-01-15T08:58:54;46.70;;;19.92;;
34657;SDS011;20865;43.312;27.152;2024-01-15T09:01:22;43.35;;;17.95;;
34657;SDS011;20865;43.312;27.152;2024-01-15T09:03:49;42.17;;;15.83;;
34657;SDS011;20865;43.312;27.152;2024-01-15T09:06:17;42.93;;;17.57;;
34657;SDS011;20865;43.312;27.152;2024-01-15T09:08:46;69.20;;;26.40;;
34657;SDS011;20865;43.312;27.152;2024-01-15T09:11:13;41.85;;;14.90;;
34657;SDS011;20865;43.312;27.152;2024-01-15T09:13:41;47.48;;;17.07;;
34657;SDS011;20865;43.312;27.152;2024-01-15T09:16:08;50.35;;;19.52;;
34657;SDS011;20865;43.312;27.152;2024-01-15T09:18:36;37.90;;;15.95;;
34657;SDS011;20865;43.312;27.152;2024-01-15T09:21:03;38.15;;;15.98;;
34657;SDS011;20865;43.312;27.152;2024-01-15T09:23:31;35.30;;;15.00;;
34657;SDS011;20865;43.312;27.152;2024-01-15T09:25:58;38.40;;;15.15;;
34657;SDS011;20865;43.312;27.152;2024-01-15T09:28:26;51.70;;;19.30;;
34657;SDS011;20865;43.312;27.152;2024-01-15T09:30:53;34.50;;;15.50;;
34657;SDS011;20865;43.312;27.152;2024-01-15T09:33:22;109.60;;;34.33;;
34657;SDS011;20865;43.312;27.152;2024-01-15T09:35:49;34.23;;;15.93;;
34657;SDS011;20865;43.312;27.152;2024-01-15T09:38:17;38.75;;;15.58;;
34657;SDS011;20865;43.312;27.152;2024-01-15T09:40:45;56.68;;;24.75;;
34657;SDS011;20865;43.312;27.152;2024-01-15T09:43:14;50.48;;;19.60;;
34657;SDS011;20865;43.312;27.152;2024-01-15T09:45:43;40.75;;;16.32;;
34657;SDS011;20865;43.312;27.152;2024-01-15T09:48:11;40.00;;;15.55;;
34657;SDS011;20865;43.312;27.152;2024-01-15T09:50:39;40.43;;;14.55;;
34657;SDS011;20865;43.312;27.152;2024-01-15T09:53:07;31.17;;;13.05;;
34657;SDS011;20865;43.312;27.152;2024-01-15T09:55:36;58.63;;;21.20;;
34657;SDS011;20865;43.312;27.152;2024-01-15T09:58:03;39.80;;;17.65;;
34657;SDS011;20865;43.312;27.152;2024-01-15T10:00:31;57.43;;;19.37;;
34657;SDS011;20865;43.312;27.152;2024-01-15T10:03:04;41.18;;;16.37;;
34657;SDS011;20865;43.312;27.152;2024-01-15T10:05:33;41.33;;;14.85;;
34657;SDS011;20865;43.312;27.152;2024-01-15T10:08:00;48.92;;;18.35;;
34657;SDS011;20865;43.312;27.152;2024-01-15T10:10:31;35.43;;;13.98;;
34657;SDS011;20865;43.312;27.152;2024-01-15T10:12:58;35.92;;;14.70;;
34657;SDS011;20865;43.312;27.152;2024-01-15T10:15:26;44.80;;;14.90;;
34657;SDS011;20865;43.312;27.152;2024-01-15T10:17:54;38.02;;;16.37;;
34657;SDS011;20865;43.312;27.152;2024-01-15T10:20:21;41.35;;;15.48;;
34657;SDS011;20865;43.312;27.152;2024-01-15T10:22:49;47.93;;;17.82;;
34657;SDS011;20865;43.312;27.152;2024-01-15T10:25:17;51.33;;;19.60;;
34657;SDS011;20865;43.312;27.152;2024-01-15T10:27:47;108.47;;;42.45;;
34657;SDS011;20865;43.312;27.152;2024-01-15T10:30:17;92.67;;;33.38;;
34657;SDS011;20865;43.312;27.152;2024-01-15T10:32:45;60.15;;;24.50;;
34657;SDS011;20865;43.312;27.152;2024-01-15T10:35:15;54.13;;;24.57;;
34657;SDS011;20865;43.312;27.152;2024-01-15T10:37:43;51.68;;;22.52;;
34657;SDS011;20865;43.312;27.152;2024-01-15T10:40:11;71.12;;;32.17;;
34657;SDS011;20865;43.312;27.152;2024-01-15T10:42:40;68.30;;;30.00;;
34657;SDS011;20865;43.312;27.152;2024-01-15T10:45:07;50.75;;;21.25;;
34657;SDS011;20865;43.312;27.152;2024-01-15T10:47:35;102.53;;;40.88;;
34657;SDS011;20865;43.312;27.152;2024-01-15T10:50:03;58.25;;;22.22;;
34657;SDS011;20865;43.312;27.152;2024-01-15T10:52:36;45.52;;;20.88;;
34657;SDS011;20865;43.312;27.152;2024-01-15T10:55:10;79.70;;;33.95;;
34657;SDS011;20865;43.312;27.152;2024-01-15T10:57:40;33.73;;;13.72;;
34657;SDS011;20865;43.312;27.152;2024-01-15T11:00:05;78.72;;;26.97;;
34657;SDS011;20865;43.312;27.152;2024-01-15T11:02:36;70.75;;;22.85;;
34657;SDS011;20865;43.312;27.152;2024-01-15T11:05:04;28.98;;;11.78;;
34657;SDS011;20865;43.312;27.152;2024-01-15T11:07:32;28.25;;;12.33;;
34657;SDS011;20865;43.312;27.152;2024-01-15T11:10:02;33.33;;;13.53;;
34657;SDS011;20865;43.312;27.152;2024-01-15T11:12:30;33.15;;;12.47;;
34657;SDS011;20865;43.312;27.152;2024-01-15T11:15:02;42.90;;;15.18;;
34657;SDS011;20865;43.312;27.152;2024-01-15T11:17:57;37.88;;;14.83;;
34657;SDS011;20865;43.312;27.152;2024-01-15T11:20:17;72.78;;;29.70;;
34657;SDS011;20865;43.312;27.152;2024-01-15T11:22:48;31.68;;;11.85;;
34657;SDS011;20865;43.312;27.152;2024-01-15T11:25:17;26.97;;;10.55;;
34657;SDS011;20865;43.312;27.152;2024-01-15T11:27:46;23.73;;;10.72;;
34657;SDS011;20865;43.312;27.152;2024-01-15T11:30:18;30.68;;;11.48;;
34657;SDS011;20865;43.312;27.152;2024-01-15T11:32:46;20.57;;;9.60;;
34657;SDS011;20865;43.312;27.152;2024-01-15T11:35:14;39.20;;;17.90;;
34657;SDS011;20865;43.312;27.152;2024-01-15T11:43:03;59.38;;;24.37;;
34657;SDS011;20865;43.312;27.152;2024-01-15T11:45:33;38.33;;;14.53;;
34657;SDS011;20865;43.312;27.152;2024-01-15T11:50:44;68.67;;;27.07;;
34657;SDS011;20865;43.312;27.152;2024-01-15T11:53:21;196.35;;;71.25;;
34657;SDS011;20865;43.312;27.152;2024-01-15T11:55:56;47.23;;;19.07;;
34657;SDS011;20865;43.312;27.152;2024-01-15T11:58:25;130.70;;;45.20;;
34657;SDS011;20865;43.312;27.152;2024-01-15T12:00:53;47.43;;;17.48;;
34657;SDS011;20865;43.312;27.152;2024-01-15T12:03:21;60.90;;;26.77;;
34657;SDS011;20865;43.312;27.152;2024-01-15T12:05:50;32.20;;;13.25;;
34657;SDS011;20865;43.312;27.152;2024-01-15T12:08:22;32.05;;;11.33;;
34657;SDS011;20865;43.312;27.152;2024-01-15T12:10:50;72.67;;;26.12;;
34657;SDS011;20865;43.312;27.152;2024-01-15T12:13:18;98.35;;;35.95;;
34657;SDS011;20865;43.312;27.152;2024-01-15T12:15:47;112.03;;;41.25;;
34657;SDS011;20865;43.312;27.152;2024-01-15T12:18:18;65.67;;;21.68;;
34657;SDS011;20865;43.312;27.152;2024-01-15T12:20:46;313.48;;;93.75;;
34657;SDS011;20865;43.312;27.152;2024-01-15T12:23:14;125.58;;;41.68;;
34657;SDS011;20865;43.312;27.152;2024-01-15T12:25:42;82.78;;;31.75;;
34657;SDS011;20865;43.312;27.152;2024-01-15T12:28:10;48.55;;;16.67;;
34657;SDS011;20865;43.312;27.152;2024-01-15T12:30:38;26.75;;;11.15;;
34657;SDS011;20865;43.312;27.152;2024-01-15T12:33:06;10.15;;;5.22;;
34657;SDS011;20865;43.312;27.152;2024-01-15T12:35:34;8.40;;;4.20;;
34657;SDS011;20865;43.312;27.152;2024-01-15T12:38:03;11.78;;;5.72;;
34657;SDS011;20865;43.312;27.152;2024-01-15T12:40:32;9.55;;;4.22;;
34657;SDS011;20865;43.312;27.152;2024-01-15T12:43:00;11.00;;;5.75;;
34657;SDS011;20865;43.312;27.152;2024-01-15T12:45:27;20.17;;;8.25;;
34657;SDS011;20865;43.312;27.152;2024-01-15T12:47:56;27.82;;;9.18;;
34657;SDS011;20865;43.312;27.152;2024-01-15T12:50:26;24.82;;;9.23;;
34657;SDS011;20865;43.312;27.152;2024-01-15T12:52:56;27.30;;;8.45;;
34657;SDS011;20865;43.312;27.152;2024-01-15T12:55:25;31.50;;;11.85;;
34657;SDS011;20865;43.312;27.152;2024-01-15T12:57:52;16.20;;;6.78;;
34657;SDS011;20865;43.312;27.152;2024-01-15T13:00:20;14.60;;;5.78;;
34657;SDS011;20865;43.312;27.152;2024-01-15T13:02:48;11.70;;;5.83;;
34657;SDS011;20865;43.312;27.152;2024-01-15T13:05:16;17.92;;;7.37;;
34657;SDS011;20865;43.312;27.152;2024-01-15T13:07:44;36.75;;;15.55;;
34657;SDS011;20865;43.312;27.152;2024-01-15T13:10:12;20.68;;;9.78;;
34657;SDS011;20865;43.312;27.152;2024-01-15T13:12:40;14.25;;;6.85;;
34657;SDS011;20865;43.312;27.152;2024-01-15T13:15:08;9.60;;;4.92;;
34657;SDS011;20865;43.312;27.152;2024-01-15T13:17:38;12.93;;;6.22;;
34657;SDS011;20865;43.312;27.152;2024-01-15T13:20:06;8.75;;;4.87;;
34657;SDS011;20865;43.312;27.152;2024-01-15T13:22:36;11.15;;;4.58;;
34657;SDS011;20865;43.312;27.152;2024-01-15T13:25:05;13.78;;;5.95;;
34657;SDS011;20865;43.312;27.152;2024-01-15T13:27:35;11.45;;;5.40;;
34657;SDS011;20865;43.312;27.152;2024-01-15T13:30:03;15.55;;;6.30;;
34657;SDS011;20865;43.312;27.152;2024-01-15T13:32:32;15.18;;;6.47;;
34657;SDS011;20865;43.312;27.152;2024-01-15T13:35:01;25.77;;;11.00;;
34657;SDS011;20865;43.312;27.152;2024-01-15T13:37:30;14.73;;;6.45;;
34657;SDS011;20865;43.312;27.152;2024-01-15T13:39:57;17.48;;;8.00;;
34657;SDS011;20865;43.312;27.152;2024-01-15T13:42:26;17.12;;;6.45;;
34657;SDS011;20865;43.312;27.152;2024-01-15T13:44:54;73.75;;;27.70;;
34657;SDS011;20865;43.312;27.152;2024-01-15T13:47:22;20.00;;;8.75;;
34657;SDS011;20865;43.312;27.152;2024-01-15T13:49:50;23.45;;;9.53;;
34657;SDS011;20865;43.312;27.152;2024-01-15T13:52:18;139.57;;;55.52;;
34657;SDS011;20865;43.312;27.152;2024-01-15T13:54:45;39.25;;;17.10;;
34657;SDS011;20865;43.312;27.152;2024-01-15T13:57:13;75.30;;;33.40;;
34657;SDS011;20865;43.312;27.152;2024-01-15T13:59:40;44.03;;;18.23;;
34657;SDS011;20865;43.312;27.152;2024-01-15T14:02:08;25.37;;;10.60;;
34657;SDS011;20865;43.312;27.152;2024-01-15T14:04:36;23.73;;;10.28;;
34657;SDS011;20865;43.312;27.152;2024-01-15T14:07:05;19.45;;;7.62;;
34657;SDS011;20865;43.312;27.152;2024-01-15T14:09:33;60.92;;;25.70;;
34657;SDS011;20865;43.312;27.152;2024-01-15T14:12:00;43.23;;;17.62;;
34657;SDS011;20865;43.312;27.152;2024-01-15T14:14:28;49.42;;;27.85;;
34657;SDS011;20865;43.312;27.152;2024-01-15T14:16:56;35.15;;;16.82;;
34657;SDS011;20865;43.312;27.152;2024-01-15T14:19:23;44.35;;;15.32;;
34657;SDS011;20865;43.312;27.152;2024-01-15T14:21:51;82.22;;;35.73;;
34657;SDS011;20865;43.312;27.152;2024-01-15T14:24:18;17.12;;;8.20;;
34657;SDS011;20865;43.312;27.152;2024-01-15T14:26:46;17.87;;;9.45;;
34657;SDS011;20865;43.312;27.152;2024-01-15T14:29:13;19.80;;;10.65;;